Time;durP1;ratioP1;P1;durP2;ratioP2;P2;SDS_P1;SDS_P2;PMS_P1;PMS_P2;Temp;Humidity;BMP_temperature;BMP_pressure;BME280_temperature;BME280_humidity;BME280_pressure;Samples;Min_cycle;Max_cycle;Signal;HPM_P1;HPM_P2
2021/05/30 00:01:32;;;;;;;32.80;21.63;;;;;;;9.93;80.16;99299.75;125189;1104;64477;-91
2021/05/30 00:03:59;;;;;;;37.13;24.27;;;;;;;9.94;80.29;99306.77;125098;1104;64307;-90
2021/05/30 00:06:30;;;;;;;42.07;24.57;;;;;;;9.97;80.31;99303.92;125218;1105;64400;-89
2021/05/30 00:08:57;;;;;;;30.53;22.50;;;;;;;10.02;80.30;99300.03;125783;1104;64317;-89
2021/05/30 00:11:24;;;;;;;30.20;23.17;;;;;;;10.06;80.29;99293.59;125740;1097;64287;-89
2021/05/30 00:13:55;;;;;;;28.57;23.13;;;;;;;10.06;80.45;99298.91;124871;1104;64345;-92
2021/05/30 00:16:22;;;;;;;30.97;25.00;;;;;;;10.06;80.38;99293.59;124934;1097;64455;-89
2021/05/30 00:18:50;;;;;;;31.27;27.83;;;;;;;10.04;80.36;99290.16;124983;1097;64339;-88
2021/05/30 00:21:18;;;;;;;30.90;26.77;;;;;;;10.04;80.45;99286.64;124887;1104;64348;-89
2021/05/30 00:23:45;;;;;;;33.03;27.07;;;;;;;10.02;80.48;99294.70;124856;1104;64332;-89
2021/05/30 00:26:12;;;;;;;34.67;26.13;;;;;;;10.01;80.38;99289.49;124834;1097;64348;-92
2021/05/30 00:28:40;;;;;;;30.35;24.70;;;;;;;10.02;80.48;99296.52;124875;1104;64345;-89
2021/05/30 00:31:07;;;;;;;35.50;24.20;;;;;;;10.00;80.45;99285.09;124894;1097;64477;-89
2021/05/30 00:33:35;;;;;;;29.07;23.00;;;;;;;10.00;80.64;99290.42;124814;1097;64393;-89
2021/05/30 00:36:03;;;;;;;27.57;22.60;;;;;;;10.02;80.55;99289.38;124762;1097;64709;-89
2021/05/30 00:38:30;;;;;;;27.03;22.67;;;;;;;10.04;80.68;99286.64;125050;1104;64336;-89
2021/05/30 00:40:58;;;;;;;23.23;20.73;;;;;;;10.07;80.74;99287.30;124915;1104;64352;-89
2021/05/30 00:43:26;;;;;;;25.77;22.87;;;;;;;10.10;80.71;99287.11;124954;1097;64325;-89
2021/05/30 00:45:53;;;;;;;25.13;22.43;;;;;;;10.14;80.73;99281.59;124890;1097;64477;-89
2021/05/30 00:48:20;;;;;;;25.77;21.30;;;;;;;10.10;80.55;99284.45;124909;1104;64667;-89
2021/05/30 00:50:47;;;;;;;26.40;19.87;;;;;;;10.06;80.60;99287.41;125120;1104;64284;-89
2021/05/30 00:53:18;;;;;;;23.67;20.03;;;;;;;10.03;80.63;99283.13;124967;1097;64414;-90
2021/05/30 00:55:48;;;;;;;23.43;20.07;;;;;;;10.00;80.60;99274.44;124902;1097;64489;-89
2021/05/30 00:58:15;;;;;;;22.88;19.43;;;;;;;9.98;80.76;99271.89;124955;1104;64349;-89
2021/05/30 01:00:42;;;;;;;23.37;18.90;;;;;;;10.00;80.99;99283.28;124956;1104;64349;-89
2021/05/30 01:03:10;;;;;;;21.57;18.77;;;;;;;10.00;80.83;99271.78;125002;1097;64313;-89
2021/05/30 01:05:37;;;;;;;22.83;19.80;;;;;;;9.99;80.90;99278.92;124846;1097;64358;-90
2021/05/30 01:08:05;;;;;;;22.73;19.10;;;;;;;10.05;80.95;99285.67;124910;1097;64531;-90
2021/05/30 01:10:34;;;;;;;22.30;19.87;;;;;;;10.07;81.00;99283.78;124971;1097;64442;-90
2021/05/30 01:13:04;;;;;;;24.68;19.95;;;;;;;10.10;80.95;99286.26;125026;1097;64374;-89
2021/05/30 01:15:32;;;;;;;;;;;;;;;10.11;81.11;99290.66;124993;1104;64347;-91
2021/05/30 01:18:00;;;;;;;26.37;21.33;;;;;;;10.09;81.03;99284.56;124871;1097;64342;-90
2021/05/30 01:20:27;;;;;;;23.30;19.85;;;;;;;10.06;80.93;99280.27;124917;1104;64582;-89
2021/05/30 01:22:55;;;;;;;24.60;21.17;;;;;;;10.05;81.02;99281.20;124896;1097;64443;-90
2021/05/30 01:25:25;;;;;;;22.90;19.13;;;;;;;10.05;81.15;99286.53;125003;1104;64368;-91
2021/05/30 01:27:52;;;;;;;;;;;;;;;10.04;81.29;99279.50;124985;1104;64901;-90
2021/05/30 01:30:21;;;;;;;22.45;19.15;;;;;;;10.04;81.40;99279.50;124874;1097;64329;-90
2021/05/30 01:32:50;;;;;;;21.27;18.17;;;;;;;10.03;81.36;99288.45;124989;1105;64411;-90
2021/05/30 01:35:19;;;;;;;21.27;17.60;;;;;;;10.03;81.31;99280.46;124981;1104;64466;-89
2021/05/30 01:37:48;;;;;;;20.67;18.47;;;;;;;9.97;81.30;99271.97;124998;1104;64310;-91
2021/05/30 01:40:17;;;;;;;19.20;17.17;;;;;;;10.03;81.45;99271.59;125036;1104;64302;-90
2021/05/30 01:42:47;;;;;;;21.30;18.97;;;;;;;10.02;81.50;99276.06;125136;1104;64336;-90
2021/05/30 01:45:16;;;;;;;22.47;18.90;;;;;;;10.05;81.49;99281.20;125008;1104;64255;-89
2021/05/30 01:47:45;;;;;;;23.97;20.80;;;;;;;10.04;81.47;99282.16;124964;1104;64422;-90
2021/05/30 01:50:15;;;;;;;23.77;18.90;;;;;;;10.01;81.59;99285.02;125025;1104;64342;-89
2021/05/30 01:52:44;;;;;;;21.37;18.87;;;;;;;10.02;81.65;99281.39;125005;1104;64390;-93
2021/05/30 01:55:22;;;;;;;19.50;17.40;;;;;;;10.02;81.56;99281.39;125119;1097;64281;-91
2021/05/30 01:57:52;;;;;;;21.67;17.90;;;;;;;10.03;81.80;99276.92;125146;1104;64495;-90
2021/05/30 02:00:26;;;;;;;23.13;19.65;;;;;;;10.03;81.83;99272.48;125276;1104;64392;-90
2021/05/30 02:02:55;;;;;;;22.33;19.63;;;;;;;9.97;81.49;99278.15;125332;1096;64268;-90
2021/05/30 02:05:24;;;;;;;;;;;;;;;9.95;81.81;99277.38;125411;1104;64253;-89
2021/05/30 02:07:52;;;;;;;24.33;20.83;;;;;;;9.98;81.98;99282.55;125475;1104;64239;-91
2021/05/30 02:10:22;;;;;;;21.93;19.60;;;;;;;9.98;81.92;99276.33;125283;1104;64342;-90
2021/05/30 02:12:56;;;;;;;26.23;22.27;;;;;;;9.98;81.95;99279.00;125097;1096;64342;-92
2021/05/30 02:15:24;;;;;;;24.00;21.50;;;;;;;9.97;82.08;99279.95;125306;1104;64409;-88
2021/05/30 02:17:51;;;;;;;26.50;23.60;;;;;;;10.00;82.01;99275.30;125411;1104;64409;-88
2021/05/30 02:20:32;;;;;;;26.27;23.10;;;;;;;10.01;82.03;99271.70;125458;1097;64317;-87
2021/05/30 02:23:01;;;;;;;26.67;23.53;;;;;;;10.02;82.08;99276.06;125262;1104;64422;-87
2021/05/30 02:25:29;;;;;;;26.40;22.23;;;;;;;10.02;82.12;99268.08;125301;1104;64499;-86
2021/05/30 02:27:57;;;;;;;25.17;21.53;;;;;;;10.02;82.29;99273.41;125245;1104;64358;-88
2021/05/30 02:30:24;;;;;;;25.05;21.25;;;;;;;10.05;82.35;99270.55;124925;1096;64421;-90
2021/05/30 02:32:52;;;;;;;24.70;22.00;;;;;;;10.03;82.31;99268.92;124852;1104;64371;-90
2021/05/30 02:35:19;;;;;;;26.97;23.77;;;;;;;9.99;82.30;99265.61;124866;1104;64377;-89
2021/05/30 02:37:46;;;;;;;29.57;24.13;;;;;;;10.00;82.48;99272.63;124941;1104;64396;-90
2021/05/30 02:40:14;;;;;;;27.17;24.27;;;;;;;9.98;82.38;99269.23;125024;1104;64310;-89
2021/05/30 02:42:42;;;;;;;31.33;25.03;;;;;;;10.00;82.60;99261.98;125068;1097;64358;-89
2021/05/30 02:45:10;;;;;;;29.70;25.50;;;;;;;9.98;82.62;99268.34;124945;1097;64339;-89
2021/05/30 02:47:38;;;;;;;30.83;27.03;;;;;;;9.96;82.42;99264.95;125074;1104;64380;-89
2021/05/30 02:53:33;;;;;;;26.97;24.10;;;;;;;9.95;82.72;99271.20;124947;1104;64329;-89
2021/05/30 02:56:01;;;;;;;28.47;25.47;;;;;;;9.98;82.68;99271.89;124988;1097;64214;-90
2021/05/30 02:58:31;;;;;;;29.33;25.87;;;;;;;9.99;82.70;99275.41;124960;1097;64339;-90
2021/05/30 03:00:58;;;;;;;27.55;24.65;;;;;;;10.04;82.66;99271.52;125028;1097;64282;-90
2021/05/30 03:03:25;;;;;;;27.50;24.47;;;;;;;10.10;82.46;99281.78;124985;1104;64319;-90
2021/05/30 03:05:53;;;;;;;27.77;24.80;;;;;;;10.14;82.33;99284.25;125176;1097;64467;-90
2021/05/30 03:08:20;;;;;;;28.43;24.03;;;;;;;10.15;82.32;99284.17;125166;1104;64397;-90
2021/05/30 03:10:47;;;;;;;27.33;24.17;;;;;;;10.21;82.02;99280.28;125046;1097;64365;-90
2021/05/30 03:13:14;;;;;;;27.97;24.97;;;;;;;10.20;82.26;99282.09;125103;1104;64409;-90
2021/05/30 03:15:42;;;;;;;27.50;24.40;;;;;;;10.22;82.32;99280.20;125190;1105;64425;-90
2021/05/30 03:18:10;;;;;;;29.63;26.30;;;;;;;10.25;82.46;99288.00;125231;1096;64525;-90
2021/05/30 03:20:37;;;;;;;30.00;26.85;;;;;;;10.28;82.19;99289.66;125221;1104;64305;-90
2021/05/30 03:23:05;;;;;;;27.73;24.87;;;;;;;10.31;82.45;99292.97;125291;1104;64301;-90
2021/05/30 03:25:32;;;;;;;27.03;23.73;;;;;;;10.37;82.23;99291.73;125240;1105;64416;-90
2021/05/30 03:27:59;;;;;;;26.40;23.60;;;;;;;10.46;82.31;99295.66;125265;1105;64493;-90
2021/05/30 03:30:26;;;;;;;25.73;23.03;;;;;;;10.52;82.24;99297.94;125154;1104;64345;-90
2021/05/30 03:32:54;;;;;;;24.17;21.60;;;;;;;10.55;82.07;99301.27;125434;1104;64339;-90
2021/05/30 03:35:21;;;;;;;24.47;21.80;;;;;;;10.57;82.13;99300.33;125446;1104;64313;-91
2021/05/30 03:37:49;;;;;;;22.47;20.17;;;;;;;10.57;82.20;99300.33;125267;1104;64499;-91
2021/05/30 03:43:03;;;;;;;26.63;23.60;;;;;;;10.55;82.13;99301.27;125345;1097;64224;-90
2021/05/30 03:45:30;;;;;;;24.50;22.10;;;;;;;10.60;82.14;99300.98;125292;1097;64400;-90
2021/05/30 03:47:58;;;;;;;26.00;23.40;;;;;;;10.62;81.88;99303.56;125274;1104;64355;-90
2021/05/30 03:50:25;;;;;;;24.23;21.73;;;;;;;10.61;81.81;99312.50;125102;1104;64335;-91
2021/05/30 03:52:53;;;;;;;25.63;22.70;;;;;;;10.59;81.90;99301.95;125089;1104;64307;-90
2021/05/30 03:55:21;;;;;;;24.10;21.70;;;;;;;10.61;81.93;99309.83;125227;1104;64335;-91
2021/05/30 03:57:49;;;;;;;23.33;21.03;;;;;;;10.55;81.75;99309.25;125192;1104;64425;-92
2021/05/30 04:00:18;;;;;;;21.43;19.33;;;;;;;10.56;82.12;99318.13;125706;1104;64426;-91
2021/05/30 04:02:46;;;;;;;;;;;;;;;10.54;82.00;99320.03;126054;1104;64332;-90
2021/05/30 04:05:15;;;;;;;22.23;19.93;;;;;;;10.54;82.09;99320.88;125670;1104;64480;-91
2021/05/30 04:07:44;;;;;;;20.83;18.63;;;;;;;10.55;82.10;99324.39;124870;1104;64321;-90
2021/05/30 04:10:12;;;;;;;18.77;16.87;;;;;;;10.55;82.06;99325.25;124898;1104;64336;-90
2021/05/30 04:12:41;;;;;;;18.10;16.30;;;;;;;10.59;82.01;99333.08;124838;1104;64338;-90
2021/05/30 04:15:13;;;;;;;17.70;15.93;;;;;;;10.62;82.00;99330.22;124975;1097;64345;-90
2021/05/30 04:17:42;;;;;;;17.50;15.70;;;;;;;10.63;81.88;99329.25;124997;1097;64412;-90
2021/05/30 04:20:13;;;;;;;17.77;16.07;;;;;;;10.67;81.84;99328.98;125037;1104;64368;-89
2021/05/30 04:22:41;;;;;;;18.40;16.53;;;;;;;10.67;81.75;99334.31;124892;1097;64419;-92
2021/05/30 04:25:10;;;;;;;17.57;15.70;;;;;;;10.69;81.67;99328.86;124878;1104;64256;-90
2021/05/30 04:27:37;;;;;;;17.03;15.33;;;;;;;10.71;81.81;99325.16;124866;1104;64400;-90
2021/05/30 04:30:07;;;;;;;16.35;14.65;;;;;;;10.77;81.66;99334.61;124889;1097;64294;-90
2021/05/30 04:32:35;;;;;;;14.43;12.93;;;;;;;10.81;81.64;99333.45;124920;1104;64450;-92
2021/05/30 04:35:04;;;;;;;15.67;14.03;;;;;;;10.86;81.55;99334.02;124836;1104;64419;-89
2021/05/30 04:37:32;;;;;;;15.30;13.70;;;;;;;10.94;81.57;99326.39;124850;1104;64329;-91
2021/05/30 04:39:59;;;;;;;16.13;14.60;;;;;;;11.08;81.24;99325.50;124837;1097;64336;-91
2021/05/30 04:42:27;;;;;;;17.23;15.63;;;;;;;11.25;80.87;99319.11;124939;1104;64355;-91
2021/05/30 04:44:55;;;;;;;15.07;13.67;;;;;;;11.42;80.41;99320.67;124859;1097;64281;-92
2021/05/30 04:47:22;;;;;;;15.63;14.03;;;;;;;11.58;79.96;99320.52;124875;1104;64441;-91
2021/05/30 04:49:49;;;;;;;15.80;14.20;;;;;;;11.81;79.78;99319.85;124887;1104;64359;-91
2021/05/30 04:52:16;;;;;;;16.80;14.95;;;;;;;12.04;79.80;99320.16;124991;1104;64287;-91
2021/05/30 04:54:44;;;;;;;17.67;15.90;;;;;;;12.34;79.50;99319.02;125076;1097;64724;-91
2021/05/30 04:57:11;;;;;;;17.20;15.60;;;;;;;12.57;78.71;99318.28;125101;1104;64326;-91
2021/05/30 04:59:39;;;;;;;17.63;15.93;;;;;;;12.80;78.12;99321.17;124910;1097;64316;-93
2021/05/30 05:02:06;;;;;;;16.23;14.60;;;;;;;13.37;76.60;99318.79;124996;1104;64316;-92
2021/05/30 05:04:33;;;;;;;16.63;14.43;;;;;;;13.97;75.75;99321.53;125020;1104;64467;-91
2021/05/30 05:07:00;;;;;;;17.13;15.53;;;;;;;14.68;74.45;99320.50;125038;1104;64352;-90
2021/05/30 05:09:28;;;;;;;16.17;14.70;;;;;;;14.93;73.15;99314.05;124834;1104;64355;-90
2021/05/30 05:11:55;;;;;;;17.97;16.17;;;;;;;14.71;73.16;99314.88;124928;1104;64323;-90
2021/05/30 05:14:22;;;;;;;18.93;16.70;;;;;;;14.24;72.27;99311.39;124972;1096;64332;-90
2021/05/30 05:16:50;;;;;;;20.10;18.00;;;;;;;13.80;73.69;99312.95;124850;1104;64256;-90
2021/05/30 05:19:17;;;;;;;21.00;18.83;;;;;;;13.61;74.14;99321.51;124944;1096;64332;-91
2021/05/30 05:21:44;;;;;;;21.73;19.43;;;;;;;13.37;74.13;99326.82;124949;1104;64335;-90
2021/05/30 05:24:12;;;;;;;20.47;18.37;;;;;;;13.12;74.36;99325.05;124972;1104;64233;-91
2021/05/30 05:26:39;;;;;;;19.73;17.73;;;;;;;12.90;74.91;99325.75;125011;1104;64419;-91
2021/05/30 05:29:06;;;;;;;21.77;19.60;;;;;;;12.72;75.75;99330.58;124961;1104;64403;-92
2021/05/30 05:31:34;;;;;;;21.70;19.53;;;;;;;12.66;76.02;99335.48;124943;1097;64403;-92
2021/05/30 05:34:01;;;;;;;23.87;21.40;;;;;;;12.55;75.83;99325.55;124904;1104;64320;-92
2021/05/30 05:36:28;;;;;;;25.25;22.70;;;;;;;12.42;76.10;99335.38;124880;1097;64336;-92
2021/05/30 05:38:56;;;;;;;25.10;22.10;;;;;;;12.33;76.24;99336.88;124924;1104;64307;-92
2021/05/30 05:41:23;;;;;;;24.87;21.87;;;;;;;12.32;76.31;99337.82;124952;1097;64344;-91
2021/05/30 05:43:50;;;;;;;23.67;21.23;;;;;;;12.45;76.43;99344.06;125034;1104;64272;-91
2021/05/30 05:46:17;;;;;;;24.93;22.33;;;;;;;12.54;75.91;99339.89;124902;1104;64333;-91
2021/05/30 05:48:45;;;;;;;24.17;21.67;;;;;;;12.49;75.79;99350.05;124900;1097;64374;-91
2021/05/30 05:51:12;;;;;;;25.80;22.57;;;;;;;12.50;75.65;99341.89;124984;1097;64347;-91
2021/05/30 05:53:39;;;;;;;25.03;22.53;;;;;;;12.47;75.55;99354.63;124952;1096;64358;-91
2021/05/30 05:56:07;;;;;;;27.97;25.03;;;;;;;12.39;75.85;99352.48;124901;1104;64467;-91
2021/05/30 05:58:34;;;;;;;27.00;23.93;;;;;;;12.39;76.08;99352.48;124930;1104;64279;-92
2021/05/30 06:01:02;;;;;;;25.27;22.67;;;;;;;12.48;75.57;99362.56;124993;1097;64256;-92
2021/05/30 06:03:29;;;;;;;23.73;21.20;;;;;;;12.47;75.14;99366.17;125020;1104;64339;-92
2021/05/30 06:05:56;;;;;;;23.40;21.05;;;;;;;12.49;75.60;99364.26;125070;1104;64387;-91
2021/05/30 06:08:24;;;;;;;26.30;23.67;;;;;;;12.63;74.91;99375.81;124959;1104;64457;-90
2021/05/30 06:10:51;;;;;;;25.50;23.07;;;;;;;13.33;74.02;99365.50;124957;1097;64329;-92
2021/05/30 06:13:18;;;;;;;21.70;19.50;;;;;;;14.47;71.52;99365.05;124985;1097;64358;-90
2021/05/30 06:15:45;;;;;;;20.53;18.53;;;;;;;14.92;71.33;99365.16;124934;1104;64362;-89
2021/05/30 06:18:14;;;;;;;15.13;13.63;;;;;;;15.32;69.83;99364.65;124993;1104;64462;-90
2021/05/30 06:20:44;;;;;;;16.00;14.50;;;;;;;15.03;69.75;99372.35;125010;1097;64512;-89
2021/05/30 06:23:13;;;;;;;15.48;14.15;;;;;;;14.83;69.93;99379.31;125458;1104;64325;-90
2021/05/30 06:25:44;;;;;;;17.17;15.63;;;;;;;14.52;69.98;99370.92;125142;1097;64364;-90
2021/05/30 06:28:12;;;;;;;17.83;16.13;;;;;;;14.23;70.25;99379.37;124990;1104;64250;-90
2021/05/30 06:30:41;;;;;;;20.10;18.30;;;;;;;13.95;69.42;99377.91;124927;1097;64458;-92
2021/05/30 06:33:09;;;;;;;18.87;17.27;;;;;;;13.52;69.76;99383.76;124976;1104;64419;-90
2021/05/30 06:35:39;;;;;;;20.70;18.80;;;;;;;13.29;70.37;99385.41;124892;1104;64312;-91
2021/05/30 06:38:08;;;;;;;19.97;18.20;;;;;;;13.18;70.18;99391.51;124983;1103;64392;-93
2021/05/30 06:40:36;;;;;;;18.63;16.93;;;;;;;13.17;69.91;99395.16;125020;1104;64386;-91
2021/05/30 06:43:04;;;;;;;17.83;16.20;;;;;;;13.21;69.80;99390.44;124993;1104;64595;-91
2021/05/30 06:45:31;;;;;;;19.53;17.83;;;;;;;13.39;69.94;99391.82;124995;1104;64379;-91
2021/05/30 06:48:00;;;;;;;19.83;17.87;;;;;;;13.49;68.91;99399.20;124979;1097;64419;-91
2021/05/30 06:50:30;;;;;;;20.70;18.80;;;;;;;13.64;69.18;99398.09;125048;1104;64328;-92
2021/05/30 06:52:57;;;;;;;16.15;14.55;;;;;;;13.84;69.00;99402.81;125004;1096;64365;-91
2021/05/30 06:55:25;;;;;;;14.80;13.40;;;;;;;14.08;69.22;99398.44;125010;1104;64318;-91
2021/05/30 06:57:52;;;;;;;15.23;13.93;;;;;;;14.27;68.39;99393.41;125012;1104;64360;-92
2021/05/30 07:00:21;;;;;;;15.33;14.03;;;;;;;14.39;68.07;99403.19;125060;1104;64266;-91
2021/05/30 07:02:49;;;;;;;15.70;14.40;;;;;;;14.58;68.09;99404.48;124971;1104;64253;-92
2021/05/30 07:05:20;;;;;;;17.17;15.63;;;;;;;14.68;66.66;99398.30;124987;1096;64395;-92
2021/05/30 07:07:47;;;;;;;17.67;16.07;;;;;;;14.72;67.33;99404.30;124858;1104;64240;-92
2021/05/30 07:10:15;;;;;;;16.23;14.63;;;;;;;14.91;66.97;99404.56;124916;1097;64329;-91
2021/05/30 07:12:43;;;;;;;14.77;13.47;;;;;;;15.17;65.68;99407.03;124903;1096;64330;-92
2021/05/30 07:15:11;;;;;;;15.97;14.37;;;;;;;15.11;65.56;99412.86;124956;1104;64396;-91
2021/05/30 07:17:38;;;;;;;20.97;19.27;;;;;;;15.00;66.14;99411.02;124981;1104;64307;-91
2021/05/30 07:20:07;;;;;;;22.53;20.10;;;;;;;14.81;65.74;99411.62;124926;1097;64504;-92
2021/05/30 07:22:34;;;;;;;23.83;21.47;;;;;;;14.69;66.06;99409.88;125033;1104;64367;-91
2021/05/30 07:25:03;;;;;;;21.37;19.57;;;;;;;14.66;65.67;99413.64;124992;1104;64432;-91
2021/05/30 07:27:31;;;;;;;24.43;22.00;;;;;;;14.91;66.04;99406.39;124888;1104;64338;-88
2021/05/30 07:29:58;;;;;;;23.40;20.13;;;;;;;15.38;65.80;99404.46;124787;1104;64316;-89
2021/05/30 08:25:43;;;;;;;12.80;11.70;;;;;;;17.36;58.11;99401.26;108351;1091;63212;-92
2021/05/30 08:28:12;;;;;;;;;;;;;;;16.94;57.05;99404.04;125761;1093;64364;-94
2021/05/30 08:31:00;;;;;;;13.27;12.07;;;;;;;16.67;57.22;99393.80;126031;1104;64233;-96
2021/05/30 08:33:28;;;;;;;13.17;11.97;;;;;;;16.53;57.30;99408.41;125586;1104;64425;-94
2021/05/30 08:36:16;;;;;;;13.20;12.00;;;;;;;16.57;58.11;99406.33;126060;1096;64318;-95
2021/05/30 08:38:44;;;;;;;12.33;11.23;;;;;;;16.66;57.84;99416.29;125989;1104;64336;-96
2021/05/30 08:45:33;;;;;;;12.00;10.80;;;;;;;16.38;57.16;99413.27;125654;1100;64447;-93
2021/05/30 08:48:00;;;;;;;10.53;9.63;;;;;;;16.16;57.18;99414.19;125518;1105;64460;-95
2021/05/30 08:50:28;;;;;;;10.67;9.63;;;;;;;16.02;57.80;99425.25;127276;1104;62375;-93
2021/05/30 08:52:55;;;;;;;10.47;9.50;;;;;;;16.21;58.13;99429.95;125749;1105;64403;-93
2021/05/30 08:55:23;;;;;;;9.67;8.87;;;;;;;16.63;57.27;99424.63;125596;1100;64258;-93
2021/05/30 08:57:51;;;;;;;8.90;8.10;;;;;;;16.84;57.56;99416.58;125146;1099;64341;-87
2021/05/30 09:00:27;;;;;;;8.40;7.80;;;;;;;16.87;57.43;99409.09;124837;1100;64468;-88
2021/05/30 09:03:14;;;;;;;9.37;8.67;;;;;;;16.75;57.65;99417.36;124605;1105;64499;-88
2021/05/30 09:05:42;;;;;;;9.03;8.13;;;;;;;16.65;58.49;99418.13;124721;1104;64373;-87
2021/05/30 09:08:29;;;;;;;8.97;8.20;;;;;;;16.58;57.63;99416.94;124822;1104;64351;-89
2021/05/30 09:10:57;;;;;;;9.20;8.40;;;;;;;16.37;57.91;99416.07;124856;1099;64329;-86
2021/05/30 09:13:24;;;;;;;8.43;7.70;;;;;;;16.17;58.34;99423.98;124442;1100;64342;-88
2021/05/30 09:18:33;;;;;;;8.05;7.35;;;;;;;15.96;58.55;99428.45;124828;1105;64406;-88
2021/05/30 09:21:03;;;;;;;7.87;7.17;;;;;;;15.92;58.69;99422.46;124958;1096;64489;-88
2021/05/30 09:23:36;;;;;;;8.20;7.47;;;;;;;16.11;59.30;99416.41;124883;1104;64278;-88
2021/05/30 09:26:10;;;;;;;7.00;6.30;;;;;;;16.31;57.94;99419.29;124939;1104;64396;-88
2021/05/30 09:28:40;;;;;;;6.37;5.80;;;;;;;16.34;57.73;99416.33;124936;1104;64429;-88
2021/05/30 09:31:08;;;;;;;6.63;5.43;;;;;;;16.24;57.68;99414.44;124885;1104;64428;-89
2021/05/30 09:33:35;;;;;;;5.70;5.17;;;;;;;16.19;56.92;99410.39;124902;1096;64399;-88
2021/05/30 09:36:04;;;;;;;5.77;5.30;;;;;;;16.15;56.86;99417.03;124948;1096;64332;-88
2021/05/30 09:38:35;;;;;;;5.50;4.50;;;;;;;16.22;56.17;99419.08;124961;1104;64432;-88
2021/05/30 09:41:07;;;;;;;5.23;4.83;;;;;;;16.37;55.55;99408.00;124965;1104;64284;-88
2021/05/30 09:43:55;;;;;;;5.53;5.07;;;;;;;16.54;55.46;99420.89;124848;1104;64308;-88
2021/05/30 09:46:30;;;;;;;5.97;5.37;;;;;;;16.84;56.48;99425.51;124876;1096;64470;-89
2021/05/30 09:48:59;;;;;;;6.43;5.83;;;;;;;16.78;55.24;99427.89;124845;1104;64326;-89
2021/05/30 09:51:39;;;;;;;6.10;5.60;;;;;;;16.61;56.24;99427.47;124880;1104;64306;-89
2021/05/30 09:54:14;;;;;;;6.77;6.23;;;;;;;16.33;56.27;99431.63;124964;1104;64747;-88
2021/05/30 09:56:52;;;;;;;8.13;7.40;;;;;;;15.90;57.45;99445.06;124916;1104;64328;-89
2021/05/30 09:59:24;;;;;;;6.40;5.90;;;;;;;15.42;60.39;99451.56;124915;1096;64329;-89
2021/05/30 10:02:02;;;;;;;5.10;4.50;;;;;;;14.78;61.83;99460.16;124867;1104;64338;-88
2021/05/30 10:04:32;;;;;;;4.80;4.40;;;;;;;14.14;65.63;99464.97;124769;1096;64253;-85
2021/05/30 10:07:02;;;;;;;5.80;4.77;;;;;;;13.77;66.86;99465.88;124926;1096;64333;-87
2021/05/30 10:09:31;;;;;;;4.00;3.70;;;;;;;13.51;66.90;99469.58;124867;1104;64342;-86
2021/05/30 10:11:59;;;;;;;3.50;3.20;;;;;;;13.46;67.13;99458.34;124848;1104;64301;-88
2021/05/30 10:14:28;;;;;;;22.63;12.87;;;;;;;13.57;67.88;99474.48;124768;1104;64367;-86
2021/05/30 10:16:55;;;;;;;5.17;3.90;;;;;;;13.60;67.94;99474.25;124684;1096;64252;-89
2021/05/30 10:19:37;;;;;;;6.40;4.60;;;;;;;13.68;68.63;99473.70;124881;1096;64342;-87
2021/05/30 10:22:04;;;;;;;2.80;2.60;;;;;;;13.83;67.65;99481.49;124888;1104;64354;-87
2021/05/30 10:24:38;;;;;;;4.60;3.10;;;;;;;14.10;67.38;99474.23;124865;1104;64515;-89
2021/05/30 10:27:25;;;;;;;5.30;3.97;;;;;;;14.36;67.15;99472.29;124874;1096;64363;-88
2021/05/30 10:30:10;;;;;;;4.13;3.30;;;;;;;14.66;66.71;99474.50;124984;1096;64334;-88
2021/05/30 10:33:13;;;;;;;4.47;2.80;;;;;;;14.93;65.40;99468.86;125634;1104;64262;-95
2021/05/30 10:35:45;;;;;;;5.33;3.37;;;;;;;15.11;64.99;99469.23;125292;1104;64332;-93
2021/05/30 10:38:47;;;;;;;3.43;3.10;;;;;;;15.37;65.17;99469.88;125263;1098;64348;-96
2021/05/30 10:41:17;;;;;;;8.30;3.97;;;;;;;15.79;64.98;99470.98;125531;1099;64255;-89
2021/05/30 10:43:47;;;;;;;2.10;1.90;;;;;;;16.02;63.50;99473.65;125444;1104;64309;-93
2021/05/30 10:46:14;;;;;;;5.57;3.80;;;;;;;16.32;63.70;99469.40;125524;1100;64376;-86
2021/05/30 10:48:46;;;;;;;2.40;1.90;;;;;;;16.56;61.61;99469.17;125606;1104;64463;-94
2021/05/30 10:53:46;;;;;;;1.93;1.83;;;;;;;16.72;60.26;99466.05;125270;1104;64242;-87
2021/05/30 10:56:26;;;;;;;4.03;3.30;;;;;;;16.77;60.55;99464.73;124830;1104;64329;-84
2021/05/30 10:59:09;;;;;;;2.00;1.90;;;;;;;17.01;60.25;99472.54;124891;1098;64364;-84
2021/05/30 11:06:54;;;;;;;2.90;2.70;;;;;;;17.47;58.36;99460.44;124907;1100;64435;-84
2021/05/30 11:09:22;;;;;;;3.03;2.73;;;;;;;17.74;59.61;99475.99;124882;1105;64792;-84
2021/05/30 11:12:27;;;;;;;3.20;2.90;;;;;;;17.98;58.04;99467.61;124829;1104;64335;-84
2021/05/30 11:15:06;;;;;;;6.10;5.60;;;;;;;18.12;58.43;99468.20;124632;1104;64281;-81
2021/05/30 11:17:49;;;;;;;4.23;3.95;;;;;;;18.19;58.29;99463.93;124590;1104;64361;-81
2021/05/30 11:20:30;;;;;;;3.33;3.03;;;;;;;18.18;56.27;99468.48;124602;1105;64377;-82
2021/05/30 11:23:00;;;;;;;3.07;2.80;;;;;;;18.03;57.30;99463.63;124540;1100;64332;-82
2021/05/30 11:25:53;;;;;;;3.10;2.90;;;;;;;17.94;57.75;99471.56;124609;1099;64285;-82
2021/05/30 11:28:26;;;;;;;3.40;3.10;;;;;;;17.72;57.16;99461.82;124614;1104;64278;-83
2021/05/30 11:31:08;;;;;;;4.30;3.75;;;;;;;17.46;56.99;99465.98;124773;1104;64435;-82
2021/05/30 11:33:45;;;;;;;4.10;3.80;;;;;;;17.11;57.00;99464.50;124759;1104;64255;-82
2021/05/30 11:36:26;;;;;;;4.40;4.10;;;;;;;16.92;58.40;99459.00;124594;1104;64326;-82
2021/05/30 11:39:11;;;;;;;5.27;4.77;;;;;;;16.78;58.11;99452.97;124573;1104;64371;-82
2021/05/30 11:41:51;;;;;;;5.05;4.65;;;;;;;16.93;58.11;99461.58;124588;1100;64416;-83
2021/05/30 11:44:23;;;;;;;5.85;5.35;;;;;;;17.25;59.32;99463.32;124721;1104;64338;-84
2021/05/30 11:46:57;;;;;;;5.60;5.10;;;;;;;17.71;59.20;99460.09;124798;1099;64422;-83
2021/05/30 11:49:28;;;;;;;5.70;5.20;;;;;;;18.28;58.21;99456.86;124918;1104;64303;-81
2021/05/30 11:52:01;;;;;;;5.70;5.20;;;;;;;18.67;57.67;99449.63;124781;1099;64631;-82
2021/05/30 11:54:33;;;;;;;6.40;5.80;;;;;;;18.81;56.89;99443.80;124722;1100;64470;-82
2021/05/30 11:57:05;;;;;;;5.77;5.30;;;;;;;18.67;57.53;99440.65;124600;1104;64300;-81
2021/05/30 11:59:40;;;;;;;6.20;5.73;;;;;;;18.28;57.14;99463.11;124590;1099;64377;-82
2021/05/30 12:02:09;;;;;;;6.57;6.07;;;;;;;17.39;57.52;99483.66;124548;1100;64345;-83
2021/05/30 12:04:38;;;;;;;8.30;7.53;;;;;;;16.74;60.14;99505.30;124598;1104;64415;-78
2021/05/30 12:10:51;;;;;;;5.60;4.90;;;;;;;13.79;75.86;99489.85;124451;1100;64338;-78
2021/05/30 14:01:44;;;;;;;7.10;6.07;;;;;;;13.43;78.71;99486.19;125283;1091;64396;-83
2021/05/30 14:04:11;;;;;;;6.27;5.67;;;;;;;13.58;78.79;99490.42;125111;1101;64314;-84
2021/05/30 14:06:41;;;;;;;5.93;5.43;;;;;;;13.69;78.89;99478.97;125181;1096;64422;-84
2021/05/30 14:09:08;;;;;;;4.80;4.40;;;;;;;13.79;78.60;99481.81;124877;1096;64397;-82
2021/05/30 14:11:35;;;;;;;6.10;3.63;;;;;;;13.83;78.06;99477.96;125094;1096;64428;-83
2021/05/30 14:14:03;;;;;;;3.60;3.07;;;;;;;13.84;78.13;99477.83;125081;1096;64333;-83
2021/05/30 14:16:31;;;;;;;3.60;3.37;;;;;;;13.90;78.41;99479.23;125158;1097;64259;-84
2021/05/30 14:18:59;;;;;;;4.00;3.70;;;;;;;13.98;78.28;99478.64;125151;1101;64355;-84
2021/05/30 14:21:26;;;;;;;5.83;5.23;;;;;;;14.03;77.87;99471.13;125123;1101;64432;-84
2021/05/30 14:23:53;;;;;;;6.00;5.50;;;;;;;14.09;78.14;99472.53;125144;1101;64389;-84
2021/05/30 14:26:21;;;;;;;6.20;5.63;;;;;;;14.09;77.65;99472.53;125140;1101;64422;-84
2021/05/30 14:28:48;;;;;;;6.00;5.43;;;;;;;14.09;77.63;99475.20;125217;1101;64408;-84
2021/05/30 14:31:16;;;;;;;5.53;5.03;;;;;;;14.12;77.39;99469.61;125151;1101;64249;-85
2021/05/30 14:33:43;;;;;;;6.07;5.27;;;;;;;14.12;77.50;99477.66;125166;1097;64329;-85
2021/05/30 14:36:10;;;;;;;4.43;4.10;;;;;;;14.16;76.96;99468.40;125203;1101;64393;-85